LFST 251100Z AUTO VRB03KT CAVOK 29/17 Q1019 NOSIG

TAF AMD TAF AMD LFST 250554Z 2506/2606 VRB03KT CAVOK TEMPO 2506/2508 0800 BCFG BKN002 PROB40 TEMPO 2506/2508 0400 VV///

 

Temperature in degrees Celsius: 29
Dew Point Temperature in degrees Celsius: 17

 

http://openflyers.com/case/icingChart.php?chart=2&temperature=29&dewPoint=17